Time;durP1;ratioP1;P1;durP2;ratioP2;P2;SDS_P1;SDS_P2;PMS_P1;PMS_P2;Temp;Humidity;BMP_temperature;BMP_pressure;BME280_temperature;BME280_humidity;BME280_pressure;Samples;Min_cycle;Max_cycle;Signal;HPM_P1;HPM_P2
2022/04/10 00:00:15;;;;;;;12.52;8.52;;;;;;;0.57;96.36;101852.22;5105825;28;20116;-73
2022/04/10 00:02:41;;;;;;;18.30;8.45;;;;;;;0.70;96.32;101848.38;5096744;28;20454;-73
2022/04/10 00:05:08;;;;;;;16.02;8.10;;;;;;;0.79;96.16;101855.53;5107842;28;20039;-73
2022/04/10 00:07:33;;;;;;;16.83;8.10;;;;;;;0.82;96.21;101853.06;5112862;28;20070;-73
2022/04/10 00:09:58;;;;;;;14.63;7.90;;;;;;;0.85;95.75;101848.00;5112062;28;20060;-73
2022/04/10 00:12:23;;;;;;;15.27;8.23;;;;;;;0.84;96.57;101857.38;5096503;28;20036;-73
2022/04/10 00:14:49;;;;;;;14.60;8.30;;;;;;;0.85;96.39;101851.47;5103896;28;20035;-74
2022/04/10 00:17:14;;;;;;;15.88;8.38;;;;;;;0.85;96.53;101854.03;5110566;28;20031;-73
2022/04/10 00:19:40;;;;;;;16.70;8.65;;;;;;;0.81;95.83;101846.16;5102277;28;20107;-73
2022/04/10 00:22:06;;;;;;;12.60;8.40;;;;;;;0.69;95.92;101844.06;5103730;28;20024;-73
2022/04/10 00:24:31;;;;;;;17.95;8.10;;;;;;;0.54;96.35;101835.88;5094855;28;20032;-73
2022/04/10 00:26:56;;;;;;;20.48;8.63;;;;;;;0.55;95.99;101848.72;5095283;28;20490;-73
2022/04/10 00:29:22;;;;;;;16.45;9.02;;;;;;;0.47;96.54;101857.88;5093823;28;20486;-73
2022/04/10 00:31:48;;;;;;;16.10;8.95;;;;;;;0.39;96.48;101841.34;5092384;28;20016;-73
2022/04/10 00:34:13;;;;;;;16.75;9.48;;;;;;;0.35;96.16;101850.63;5099598;28;20034;-74
2022/04/10 00:36:39;;;;;;;15.65;8.80;;;;;;;0.31;96.49;101850.47;5111885;28;20032;-73
2022/04/10 00:39:04;;;;;;;22.80;9.15;;;;;;;0.27;96.91;101848.63;5111810;28;20047;-73
2022/04/10 00:41:30;;;;;;;18.63;9.70;;;;;;;0.20;97.03;101843.28;5109777;28;20050;-73
2022/04/10 00:44:09;;;;;;;20.52;9.45;;;;;;;0.17;97.91;101847.44;5111934;28;20106;-73
2022/04/10 00:46:34;;;;;;;18.17;10.05;;;;;;;0.13;97.53;101845.56;5112419;27;20032;-73
2022/04/10 00:49:00;;;;;;;20.73;10.23;;;;;;;0.09;97.96;101839.44;5109034;27;20028;-73
2022/04/10 00:51:40;;;;;;;17.63;10.13;;;;;;;0.09;98.08;101839.44;5110844;28;20387;-73
2022/04/10 00:54:15;;;;;;;15.10;9.60;;;;;;;0.06;98.32;101834.22;5111525;28;20031;-73
2022/04/10 00:56:41;;;;;;;24.52;11.05;;;;;;;0.06;98.54;101836.78;5103892;28;20671;-73
2022/04/10 00:59:07;;;;;;;17.58;11.25;;;;;;;0.02;98.29;101836.63;5106054;28;20031;-73
2022/04/10 01:01:34;;;;;;;18.70;10.60;;;;;;;0.01;98.07;101832.34;5110401;28;20490;-73
2022/04/10 01:04:01;;;;;;;17.80;10.93;;;;;;;0.00;98.26;101834.03;5107331;28;20032;-73
2022/04/10 01:06:26;;;;;;;20.27;11.25;;;;;;;-0.04;98.89;101827.03;5092285;28;20032;-73
2022/04/10 01:08:52;;;;;;;18.52;11.75;;;;;;;-0.04;99.06;101842.41;5092433;28;20034;-73
2022/04/10 01:11:17;;;;;;;20.58;11.25;;;;;;;-0.07;98.92;101837.16;5099682;28;20494;-73
2022/04/10 01:13:43;;;;;;;22.60;12.23;;;;;;;-0.07;99.61;101837.16;5103825;28;20523;-73
2022/04/10 01:16:08;;;;;;;24.08;12.65;;;;;;;0.04;99.76;101835.88;5109766;28;20039;-73
2022/04/10 01:18:35;;;;;;;21.98;12.23;;;;;;;0.13;99.41;101835.31;5092887;28;20027;-73
2022/04/10 01:21:02;;;;;;;21.70;13.00;;;;;;;0.21;99.75;101833.91;5111433;28;20019;-73
2022/04/10 01:23:28;;;;;;;25.67;13.18;;;;;;;0.29;99.38;101835.00;5111145;28;20023;-73
2022/04/10 01:25:53;;;;;;;21.80;13.15;;;;;;;0.39;99.58;101833.63;5099377;28;20110;-73
2022/04/10 01:28:19;;;;;;;22.48;12.40;;;;;;;0.42;100.00;101834.59;5098181;28;20122;-73
2022/04/10 01:30:44;;;;;;;21.25;12.88;;;;;;;0.46;99.80;101840.75;5110668;28;20035;-73
2022/04/10 01:33:10;;;;;;;21.15;13.43;;;;;;;0.51;99.88;101840.88;5110217;28;20027;-73
2022/04/10 01:35:36;;;;;;;20.08;12.85;;;;;;;0.53;100.00;101841.81;5109972;28;20382;-73
2022/04/10 01:38:04;;;;;;;24.33;13.60;;;;;;;0.52;100.00;101845.19;5111398;28;20038;-73
2022/04/10 01:40:30;;;;;;;22.38;12.82;;;;;;;0.54;99.91;101847.00;5094021;28;20101;-73
2022/04/10 01:42:55;;;;;;;20.58;13.13;;;;;;;0.51;100.00;101834.06;5108389;28;20039;-73
2022/04/10 01:45:20;;;;;;;19.65;12.90;;;;;;;0.52;100.00;101840.94;5099725;28;20034;-73
2022/04/10 01:47:50;;;;;;;21.55;14.25;;;;;;;0.50;100.00;101840.03;5111240;28;20048;-73
2022/04/10 01:50:16;;;;;;;25.65;13.63;;;;;;;0.51;99.64;101843.44;5106765;28;20040;-74
2022/04/10 01:52:41;;;;;;;19.92;13.13;;;;;;;0.47;100.00;101847.63;5101424;27;20028;-73
2022/04/10 01:55:07;;;;;;;20.27;12.93;;;;;;;0.40;100.00;101846.53;5105117;28;20435;-73
2022/04/10 01:57:32;;;;;;;21.05;13.45;;;;;;;0.35;100.00;101849.75;5092413;28;20034;-73
2022/04/10 01:59:58;;;;;;;21.23;13.23;;;;;;;0.31;100.00;101865.88;5104621;28;20027;-73
2022/04/10 02:02:23;;;;;;;25.23;13.73;;;;;;;0.23;100.00;101860.47;5108833;28;20110;-73
2022/04/10 02:04:48;;;;;;;21.77;13.85;;;;;;;0.20;100.00;101863.81;5108322;28;20031;-73
2022/04/10 02:07:13;;;;;;;22.10;13.48;;;;;;;0.16;100.00;101866.19;5110660;28;20035;-74
2022/04/10 02:09:39;;;;;;;21.10;13.60;;;;;;;0.10;99.93;101864.31;5100028;28;20039;-73
2022/04/10 02:12:04;;;;;;;18.90;12.93;;;;;;;0.04;100.00;101863.22;5103399;28;20368;-73
2022/04/10 02:14:30;;;;;;;23.42;13.75;;;;;;;-0.03;100.00;101869.81;5098478;28;20035;-73
2022/04/10 02:16:55;;;;;;;20.95;13.68;;;;;;;-0.11;100.00;101860.94;5107216;28;20455;-73
2022/04/10 02:19:20;;;;;;;25.90;13.32;;;;;;;-0.17;100.00;101858.16;5109464;28;20027;-73
2022/04/10 02:21:46;;;;;;;26.23;13.93;;;;;;;-0.22;100.00;101867.38;5115921;28;20024;-73
2022/04/10 02:24:13;;;;;;;23.52;13.82;;;;;;;-0.25;100.00;101863.88;5113852;28;20067;-73
2022/04/10 02:26:38;;;;;;;24.38;14.07;;;;;;;-0.30;100.00;101862.81;5114125;28;20019;-73
2022/04/10 02:29:03;;;;;;;20.58;14.15;;;;;;;-0.35;100.00;101866.94;5109634;28;20031;-73
2022/04/10 02:31:29;;;;;;;25.27;14.18;;;;;;;-0.42;100.00;101864.97;5111647;28;20028;-73
2022/04/10 02:33:54;;;;;;;21.48;14.63;;;;;;;-0.41;100.00;101871.81;5112812;28;20042;-73
2022/04/10 02:36:19;;;;;;;21.33;14.57;;;;;;;-0.45;100.00;101867.41;5115614;28;20375;-73
2022/04/10 02:38:45;;;;;;;21.05;14.90;;;;;;;-0.48;100.00;101873.28;5100889;28;20115;-73
2022/04/10 02:41:10;;;;;;;23.30;14.45;;;;;;;-0.54;100.00;101861.91;5110762;28;20023;-73
2022/04/10 02:43:38;;;;;;;22.67;14.60;;;;;;;-0.64;100.00;101854.72;5112163;28;20084;-73
2022/04/10 02:46:03;;;;;;;23.92;14.48;;;;;;;-0.65;100.00;101873.47;5094351;28;20024;-73
2022/04/10 02:48:28;;;;;;;27.98;14.32;;;;;;;-0.67;100.00;101877.63;5102748;28;20031;-73
2022/04/10 02:50:54;;;;;;;23.63;14.85;;;;;;;-0.69;100.00;101880.13;5104177;28;20052;-73
2022/04/10 02:53:19;;;;;;;26.33;15.75;;;;;;;-0.74;100.00;101889.31;5094171;28;20375;-73
2022/04/10 02:55:45;;;;;;;32.85;15.05;;;;;;;-0.79;100.00;101886.56;5113875;28;20043;-73
2022/04/10 02:58:11;;;;;;;24.80;15.95;;;;;;;-0.78;100.00;101884.91;5113193;28;20110;-73
2022/04/10 03:00:36;;;;;;;25.30;16.33;;;;;;;-0.81;100.00;101883.09;5114240;28;20032;-73
2022/04/10 03:03:01;;;;;;;25.20;17.48;;;;;;;-0.82;100.00;101889.03;5111115;28;20383;-73
2022/04/10 03:05:27;;;;;;;25.45;16.50;;;;;;;-0.86;100.00;101882.03;5109605;28;20031;-73
2022/04/10 03:07:52;;;;;;;24.20;15.75;;;;;;;-0.86;100.00;101887.16;5114320;28;20481;-73
2022/04/10 03:10:18;;;;;;;22.35;14.90;;;;;;;-0.89;100.00;101889.56;5113825;28;20471;-73
2022/04/10 03:12:43;;;;;;;23.27;15.07;;;;;;;-0.91;100.00;101887.78;5105045;28;20078;-73
2022/04/10 03:15:08;;;;;;;26.23;14.88;;;;;;;-0.98;100.00;101881.56;5103014;28;20051;-73
2022/04/10 03:17:34;;;;;;;22.42;14.57;;;;;;;-1.00;100.00;101893.41;5114533;28;20116;-73
2022/04/10 03:19:59;;;;;;;23.77;14.40;;;;;;;-1.05;100.00;101890.66;5112426;28;20058;-73
2022/04/10 03:22:24;;;;;;;22.25;15.20;;;;;;;-1.06;100.00;101893.16;5103257;28;20033;-73
2022/04/10 03:24:49;;;;;;;24.52;14.43;;;;;;;-1.06;100.00;101890.59;5105261;28;20039;-73
2022/04/10 03:27:15;;;;;;;28.20;15.40;;;;;;;-1.08;100.00;101892.22;5113544;28;20028;-73
2022/04/10 03:29:40;;;;;;;26.63;15.30;;;;;;;-1.12;100.00;101892.91;5096054;28;20039;-73
2022/04/10 03:32:06;;;;;;;22.67;15.27;;;;;;;-1.16;100.00;101891.91;5112572;28;20035;-73
2022/04/10 03:34:31;;;;;;;22.60;15.20;;;;;;;-1.19;100.00;101905.44;5112324;28;20475;-73
2022/04/10 03:36:56;;;;;;;23.23;15.10;;;;;;;-1.28;100.00;101893.94;5113651;28;20067;-73
2022/04/10 03:39:22;;;;;;;25.17;15.00;;;;;;;-1.27;100.00;101904.25;5113422;28;20114;-73
2022/04/10 03:41:47;;;;;;;19.95;14.70;;;;;;;-1.28;100.00;101899.06;5103349;28;20062;-73
2022/04/10 03:44:12;;;;;;;24.33;15.27;;;;;;;-1.31;100.00;101904.06;5112215;28;20067;-73
2022/04/10 03:46:38;;;;;;;20.38;14.93;;;;;;;-1.31;100.00;101915.19;5113297;28;20031;-73
2022/04/10 03:49:03;;;;;;;24.05;15.20;;;;;;;-1.33;100.00;101906.56;5111301;28;20391;-73
2022/04/10 03:51:28;;;;;;;22.33;15.10;;;;;;;-1.33;100.00;101908.25;5112074;28;20786;-73
2022/04/10 03:53:54;;;;;;;22.67;15.15;;;;;;;-1.36;100.00;101903.88;5112896;28;20097;-73
2022/04/10 03:56:19;;;;;;;28.15;16.83;;;;;;;-1.32;100.00;101915.97;5095042;28;20028;-73
2022/04/10 03:58:44;;;;;;;21.73;14.88;;;;;;;-1.34;100.00;101920.16;5108343;28;20031;-73
2022/04/10 04:01:11;;;;;;;22.35;15.13;;;;;;;-1.33;100.00;101918.47;5106492;28;20032;-73
2022/04/10 04:03:37;;;;;;;21.65;15.07;;;;;;;-1.38;100.00;101909.72;5095155;28;20123;-73
2022/04/10 04:06:02;;;;;;;23.75;15.95;;;;;;;-1.42;100.00;101924.06;5113588;28;20122;-73
2022/04/10 04:08:27;;;;;;;20.85;14.90;;;;;;;-1.46;100.00;101911.97;5112907;28;20468;-72
2022/04/10 04:10:52;;;;;;;25.55;15.20;;;;;;;-1.43;100.00;101917.22;5112937;28;20067;-73
2022/04/10 04:13:18;;;;;;;23.15;14.68;;;;;;;-1.41;100.00;101925.81;5112425;28;20042;-73
2022/04/10 04:15:43;;;;;;;22.42;14.90;;;;;;;-1.45;100.00;101923.94;5110489;27;20027;-73
2022/04/10 04:18:08;;;;;;;21.23;14.70;;;;;;;-1.47;100.00;101921.34;5113203;28;20127;-73
2022/04/10 04:20:34;;;;;;;27.48;15.32;;;;;;;-1.54;100.00;101915.88;5111056;28;20038;-73
2022/04/10 04:22:59;;;;;;;24.08;16.13;;;;;;;-1.50;100.00;101921.19;5113638;28;20081;-73
2022/04/10 04:25:24;;;;;;;22.77;15.15;;;;;;;-1.48;100.00;101924.69;5101621;28;20454;-73
2022/04/10 04:27:49;;;;;;;24.23;14.70;;;;;;;-1.46;100.00;101928.19;5112254;28;20024;-73
2022/04/10 04:30:15;;;;;;;23.70;14.75;;;;;;;-1.45;100.00;101924.81;5105555;28;20139;-73
2022/04/10 04:32:40;;;;;;;25.75;14.45;;;;;;;-1.46;100.00;101924.75;5107571;28;20030;-73
2022/04/10 04:35:06;;;;;;;21.50;14.57;;;;;;;-1.45;100.00;101929.06;5108690;28;20019;-73
2022/04/10 04:37:31;;;;;;;21.13;13.75;;;;;;;-1.46;100.00;101927.31;5106563;28;20479;-73
2022/04/10 04:39:56;;;;;;;19.95;13.75;;;;;;;-1.49;100.00;101933.16;5092027;28;20051;-73
2022/04/10 04:42:22;;;;;;;29.85;14.52;;;;;;;-1.55;100.00;101917.56;5091665;28;20028;-73
2022/04/10 04:44:47;;;;;;;20.60;14.02;;;;;;;-1.49;100.00;101929.75;5107365;28;20047;-73
2022/04/10 04:47:12;;;;;;;23.48;13.85;;;;;;;-1.53;100.00;101927.88;5110223;28;20031;-73
2022/04/10 04:49:37;;;;;;;20.45;13.52;;;;;;;-1.55;100.00;101937.16;5111827;28;20394;-73
2022/04/10 04:52:03;;;;;;;21.15;13.57;;;;;;;-1.59;100.00;101938.69;5112332;28;20134;-73
2022/04/10 04:54:29;;;;;;;26.00;13.90;;;;;;;-1.58;100.00;101929.34;5112549;28;20032;-73
2022/04/10 04:56:55;;;;;;;24.15;13.48;;;;;;;-1.65;100.00;101921.41;5112118;28;20027;-73
2022/04/10 04:59:20;;;;;;;21.98;13.68;;;;;;;-1.60;100.00;101933.50;5102520;28;20024;-73
2022/04/10 05:01:45;;;;;;;24.17;13.45;;;;;;;-1.61;100.00;101947.09;5103248;28;20030;-73
2022/04/10 05:04:11;;;;;;;24.52;13.52;;;;;;;-1.62;100.00;101946.22;5110726;28;20360;-73
2022/04/10 05:06:37;;;;;;;19.85;14.15;;;;;;;-1.61;100.00;101944.53;5096285;28;20063;-73
2022/04/10 05:09:03;;;;;;;23.10;13.93;;;;;;;-1.61;100.00;101947.09;5111196;28;20047;-73
2022/04/10 05:11:29;;;;;;;25.58;14.13;;;;;;;-1.61;100.00;101953.09;5104424;28;20864;-73
2022/04/10 05:13:54;;;;;;;21.17;15.05;;;;;;;-1.60;100.00;101949.75;5095662;28;20039;-73
2022/04/10 05:16:19;;;;;;;22.15;13.90;;;;;;;-1.58;100.00;101954.91;5103531;28;20028;-72
2022/04/10 05:18:45;;;;;;;23.85;13.27;;;;;;;-1.55;100.00;101960.16;5093978;28;20498;-72
2022/04/10 05:21:10;;;;;;;21.10;14.07;;;;;;;-1.53;100.00;101953.44;5110035;28;20024;-72
2022/04/10 05:23:35;;;;;;;20.17;13.73;;;;;;;-1.45;100.00;101962.31;5111889;28;20102;-73
2022/04/10 05:26:00;;;;;;;21.60;13.77;;;;;;;-1.52;100.00;101945.81;5111554;28;20390;-73
2022/04/10 05:28:26;;;;;;;20.75;14.30;;;;;;;-1.45;100.00;101965.75;5110254;28;20031;-72
2022/04/10 05:30:51;;;;;;;21.73;13.55;;;;;;;-1.40;100.00;101965.09;5110960;28;20067;-73
2022/04/10 05:33:16;;;;;;;26.10;14.57;;;;;;;-1.35;100.00;101977.25;5111450;28;20091;-73
2022/04/10 05:35:42;;;;;;;24.13;14.60;;;;;;;-1.32;100.00;101968.81;5108594;28;20047;-73
2022/04/10 05:38:08;;;;;;;22.67;15.05;;;;;;;-1.23;100.00;101982.03;5110720;28;20352;-73
2022/04/10 05:40:34;;;;;;;23.67;14.77;;;;;;;-1.17;100.00;101986.53;5108951;28;20038;-73
2022/04/10 05:42:59;;;;;;;24.17;14.82;;;;;;;-1.12;100.00;101988.47;5111256;28;20031;-73
2022/04/10 05:45:24;;;;;;;22.70;15.00;;;;;;;-1.09;100.00;101980.03;5109971;28;20502;-73
2022/04/10 05:47:50;;;;;;;23.92;13.73;;;;;;;-0.99;100.00;101982.16;5106886;28;20027;-73
2022/04/10 05:50:15;;;;;;;21.63;14.55;;;;;;;-0.92;100.00;101978.19;5107756;28;20395;-73
2022/04/10 05:52:46;;;;;;;27.17;14.63;;;;;;;-0.84;100.00;101987.06;5097845;28;20051;-73
2022/04/10 05:55:13;;;;;;;21.98;14.82;;;;;;;-0.79;100.00;101994.09;5110989;28;20015;-73
2022/04/10 05:57:39;;;;;;;21.58;14.23;;;;;;;-0.71;100.00;101999.56;5111018;28;20036;-73
2022/04/10 06:00:07;;;;;;;21.48;14.02;;;;;;;-0.66;100.00;102004.88;5110394;28;20521;-73
2022/04/10 06:02:32;;;;;;;24.00;14.90;;;;;;;-0.59;100.00;102004.28;5108623;28;20028;-73
2022/04/10 06:04:58;;;;;;;24.15;14.73;;;;;;;-0.54;100.00;102005.38;5109352;28;20027;-73
2022/04/10 06:07:23;;;;;;;24.00;14.27;;;;;;;-0.42;100.00;102012.69;5110606;28;20035;-73
2022/04/10 06:09:49;;;;;;;24.98;14.68;;;;;;;-0.35;100.00;102014.69;5108450;28;20383;-73
2022/04/10 06:12:14;;;;;;;23.83;14.48;;;;;;;-0.25;100.00;102014.22;5091164;28;20080;-73
2022/04/10 06:14:39;;;;;;;23.58;14.85;;;;;;;-0.15;100.00;102012.91;5098464;28;20486;-73
2022/04/10 06:17:06;;;;;;;23.40;14.27;;;;;;;-0.07;100.00;102019.19;5091234;28;20039;-73
2022/04/10 06:19:31;;;;;;;24.38;14.85;;;;;;;0.10;100.00;102025.84;5106064;28;20027;-73
2022/04/10 06:21:56;;;;;;;25.13;16.23;;;;;;;0.27;100.00;102025.59;5100386;28;20032;-73
2022/04/10 06:24:22;;;;;;;28.17;16.23;;;;;;;0.49;100.00;102035.84;5106505;28;20108;-73
2022/04/10 06:26:51;;;;;;;34.05;16.33;;;;;;;0.73;100.00;102032.41;5102039;28;20380;-73
2022/04/10 06:29:16;;;;;;;24.88;16.55;;;;;;;0.92;100.00;102035.69;5110282;28;20020;-72
2022/04/10 06:31:42;;;;;;;32.20;18.10;;;;;;;1.11;100.00;102036.31;5108307;28;20030;-73
2022/04/10 06:34:07;;;;;;;32.83;16.85;;;;;;;1.28;100.00;102031.78;5102064;28;20023;-73
2022/04/10 06:36:32;;;;;;;25.38;14.75;;;;;;;1.46;100.00;102031.50;5110263;28;20406;-73
2022/04/10 06:38:57;;;;;;;25.48;15.05;;;;;;;1.62;100.00;102028.59;5097600;28;20502;-73
2022/04/10 06:41:23;;;;;;;23.75;13.82;;;;;;;1.83;100.00;102043.81;5104668;28;20486;-73
2022/04/10 06:43:48;;;;;;;25.23;13.73;;;;;;;2.03;100.00;102039.31;5105453;28;20035;-73
2022/04/10 06:46:13;;;;;;;25.75;13.07;;;;;;;2.15;100.00;102034.53;5106586;28;20218;-73
2022/04/10 06:48:39;;;;;;;21.02;12.35;;;;;;;2.37;100.00;102037.75;5111205;28;20490;-73
2022/04/10 06:51:04;;;;;;;20.38;11.82;;;;;;;2.53;100.00;102033.06;5109039;28;20043;-73
2022/04/10 06:53:30;;;;;;;21.70;11.80;;;;;;;2.65;100.00;102041.97;5109009;28;20577;-73
2022/04/10 06:55:55;;;;;;;18.27;11.10;;;;;;;2.70;100.00;102040.41;5109341;28;20867;-73
2022/04/10 06:58:22;;;;;;;22.88;11.55;;;;;;;2.86;100.00;102047.72;5110923;28;20043;-73
2022/04/10 07:00:51;;;;;;;28.65;11.65;;;;;;;2.99;100.00;102051.50;5106310;28;20028;-73
2022/04/10 07:03:17;;;;;;;21.00;10.77;;;;;;;3.04;100.00;102055.97;5107601;28;20027;-73
2022/04/10 07:05:42;;;;;;;17.73;9.93;;;;;;;3.17;99.19;102059.75;5109883;28;20035;-73
2022/04/10 07:08:08;;;;;;;21.80;10.90;;;;;;;3.32;98.54;102060.97;5100023;28;20471;-73
2022/04/10 07:10:33;;;;;;;15.38;10.00;;;;;;;3.41;96.64;102058.63;5113145;28;20105;-73
2022/04/10 07:12:59;;;;;;;15.75;10.10;;;;;;;3.46;95.35;102055.31;5112881;28;20468;-73
2022/04/10 07:15:24;;;;;;;16.25;9.65;;;;;;;3.53;95.39;102046.00;5114198;28;20043;-74
2022/04/10 07:17:50;;;;;;;15.95;8.65;;;;;;;3.65;95.05;102060.94;5114906;27;20440;-74
2022/04/10 07:20:15;;;;;;;14.57;8.73;;;;;;;3.69;94.60;102052.41;5111598;28;20028;-74
2022/04/10 07:25:24;;;;;;;14.93;8.57;;;;;;;3.96;92.16;102060.84;5095837;28;20055;-74
2022/04/10 07:27:49;;;;;;;14.13;7.75;;;;;;;4.15;92.92;102064.72;5111840;27;20023;-73
2022/04/10 07:30:15;;;;;;;15.52;7.68;;;;;;;4.27;91.00;102063.22;5096676;28;20054;-74
2022/04/10 07:32:40;;;;;;;14.27;6.80;;;;;;;4.37;88.88;102066.03;5112909;28;20035;-74
2022/04/10 07:35:06;;;;;;;16.20;7.68;;;;;;;4.47;88.64;102067.97;5112058;28;20135;-73
2022/04/10 07:37:32;;;;;;;12.77;6.82;;;;;;;4.59;87.21;102066.50;5107228;28;20035;-73
2022/04/10 07:39:57;;;;;;;16.30;6.38;;;;;;;4.69;84.95;102068.41;5101294;28;20043;-73
2022/04/10 07:42:23;;;;;;;13.52;6.82;;;;;;;4.78;86.74;102058.28;5101884;28;20028;-73
2022/04/10 07:44:48;;;;;;;15.73;7.05;;;;;;;4.95;84.95;102065.50;5108519;28;20055;-73
2022/04/10 07:47:25;;;;;;;10.15;5.53;;;;;;;5.03;84.26;102063.91;5114159;28;20026;-73
2022/04/10 07:49:51;;;;;;;15.35;6.70;;;;;;;5.18;86.19;102077.13;5101896;28;20028;-74
2022/04/10 07:52:17;;;;;;;14.82;7.07;;;;;;;5.27;84.56;102085.06;5107690;28;20056;-73
2022/04/10 07:54:42;;;;;;;15.73;7.10;;;;;;;5.38;83.88;102085.25;5114187;28;20030;-74
2022/04/10 07:57:08;;;;;;;15.40;6.78;;;;;;;5.44;82.94;102084.47;5113495;28;20458;-74
2022/04/10 07:59:33;;;;;;;11.57;6.55;;;;;;;5.50;81.98;102084.59;5114008;28;20026;-74
2022/04/10 08:01:58;;;;;;;12.85;6.53;;;;;;;5.54;80.86;102096.72;5106377;28;20027;-73
2022/04/10 08:04:23;;;;;;;11.88;5.85;;;;;;;5.56;80.76;102093.31;5111104;28;20035;-73
2022/04/10 08:06:49;;;;;;;13.23;6.05;;;;;;;5.66;80.76;102102.13;5113103;28;20038;-74
2022/04/10 08:09:14;;;;;;;11.70;5.88;;;;;;;5.71;81.86;102097.00;5112172;28;20032;-74
2022/04/10 08:11:39;;;;;;;10.80;4.50;;;;;;;5.83;79.45;102105.84;5112115;28;20487;-74
2022/04/10 08:14:05;;;;;;;8.48;4.57;;;;;;;5.92;78.48;102097.38;5107123;27;20076;-73
2022/04/10 08:16:30;;;;;;;8.52;4.20;;;;;;;6.05;80.74;102107.09;5111615;27;20055;-75
2022/04/10 08:18:56;;;;;;;9.30;4.28;;;;;;;6.20;78.05;102110.75;5112502;28;20471;-73
2022/04/10 08:21:21;;;;;;;14.25;4.50;;;;;;;6.28;74.65;102116.94;5113370;28;20464;-73
2022/04/10 08:23:46;;;;;;;8.68;4.13;;;;;;;6.40;75.33;102111.03;5110894;27;20042;-74
2022/04/10 08:26:12;;;;;;;9.32;4.63;;;;;;;6.55;76.29;102106.06;5110471;28;20017;-73
2022/04/10 08:28:37;;;;;;;9.25;4.72;;;;;;;6.78;76.29;102104.66;5114407;27;20031;-74
2022/04/10 08:31:02;;;;;;;9.15;4.20;;;;;;;6.93;74.80;102103.97;5131576;27;20031;-74
2022/04/10 08:33:27;;;;;;;10.48;3.72;;;;;;;7.11;72.02;102113.66;5113203;28;20034;-74
2022/04/10 08:35:53;;;;;;;9.60;3.20;;;;;;;7.21;69.49;102104.25;5113188;28;20030;-74
2022/04/10 08:38:18;;;;;;;10.93;3.55;;;;;;;7.32;67.83;102106.97;5112210;28;20032;-74
2022/04/10 08:40:45;;;;;;;7.13;2.78;;;;;;;7.54;68.56;102102.84;5109090;28;20111;-74
2022/04/10 08:43:11;;;;;;;6.40;2.60;;;;;;;7.75;63.82;102105.66;5119193;27;20515;-74
2022/04/10 08:45:37;;;;;;;4.60;2.10;;;;;;;7.71;63.28;102117.72;5109296;27;20024;-74
2022/04/10 08:48:04;;;;;;;5.15;2.17;;;;;;;7.76;62.54;102127.28;5125232;27;20475;-74
2022/04/10 08:50:30;;;;;;;9.75;2.50;;;;;;;7.85;64.28;102114.41;5118130;27;20097;-74
2022/04/10 08:52:58;;;;;;;7.45;2.58;;;;;;;7.87;63.89;102116.13;5115767;27;20059;-74
2022/04/10 08:55:25;;;;;;;5.30;2.47;;;;;;;7.94;63.81;102124.81;5112795;27;20034;-74
2022/04/10 08:57:50;;;;;;;5.35;2.05;;;;;;;8.00;63.32;102122.28;5109014;27;20109;-74
2022/04/10 09:00:17;;;;;;;8.40;2.63;;;;;;;8.08;61.88;102127.56;5111981;27;20119;-80
2022/04/10 09:02:48;;;;;;;8.52;2.75;;;;;;;8.11;61.86;102123.25;5110182;28;20479;-81
2022/04/10 09:05:18;;;;;;;11.90;2.55;;;;;;;8.06;63.08;102124.94;5112120;28;20392;-74
2022/04/10 09:08:09;;;;;;;7.13;2.90;;;;;;;7.93;66.52;102123.09;5122602;27;20027;-75
2022/04/10 09:11:08;;;;;;;10.57;3.00;;;;;;;7.80;66.96;102129.91;5103084;28;20020;-74
2022/04/10 09:13:38;;;;;;;7.43;2.78;;;;;;;7.80;66.62;102132.50;5109301;28;20479;-73
2022/04/10 09:16:11;;;;;;;8.43;3.10;;;;;;;7.90;66.15;102141.25;5116575;27;20026;-74
2022/04/10 09:18:48;;;;;;;9.30;3.47;;;;;;;8.06;66.50;102131.84;5112641;28;20073;-74
2022/04/10 09:21:14;;;;;;;8.95;3.90;;;;;;;8.23;65.03;102132.84;5111713;28;20161;-74
2022/04/10 09:23:40;;;;;;;11.27;3.13;;;;;;;8.20;67.14;102138.88;5112145;28;20027;-74
2022/04/10 09:26:05;;;;;;;6.05;3.17;;;;;;;7.89;64.51;102139.53;5112439;28;20034;-75
2022/04/10 09:28:42;;;;;;;8.70;3.15;;;;;;;7.54;66.24;102145.25;5111038;28;20026;-75
2022/04/10 09:31:26;;;;;;;6.28;3.08;;;;;;;7.31;67.53;102138.97;5112654;28;20028;-74
2022/04/10 09:33:52;;;;;;;8.15;2.70;;;;;;;7.40;65.41;102141.66;5111359;28;20503;-74
2022/04/10 09:36:47;;;;;;;7.32;2.83;;;;;;;7.52;65.43;102136.59;5112102;28;20109;-74
2022/04/10 09:39:14;;;;;;;11.18;2.53;;;;;;;7.71;64.87;102128.09;5111505;28;20031;-74
2022/04/10 09:41:42;;;;;;;7.35;2.80;;;;;;;7.94;63.52;102127.44;5111496;28;20503;-74
2022/04/10 09:44:20;;;;;;;9.25;2.83;;;;;;;8.25;66.42;102125.94;5112313;28;20095;-75
2022/04/10 09:46:57;;;;;;;8.70;2.70;;;;;;;8.53;64.34;102123.53;5111988;28;20388;-74
2022/04/10 09:49:22;;;;;;;7.45;2.42;;;;;;;8.75;60.91;102124.50;5111309;28;20024;-75
2022/04/10 09:52:02;;;;;;;7.90;2.60;;;;;;;8.81;61.29;102121.94;5111773;28;20503;-75
2022/04/10 09:54:42;;;;;;;4.35;2.45;;;;;;;8.87;60.86;102134.97;5111354;28;20592;-74
2022/04/10 09:57:14;;;;;;;4.05;1.92;;;;;;;9.00;59.92;102123.75;5112260;28;20020;-74
2022/04/10 09:59:43;;;;;;;7.53;2.30;;;;;;;9.15;57.71;102125.50;5111911;27;20032;-74
2022/04/10 10:02:09;;;;;;;4.70;2.08;;;;;;;9.29;55.89;102123.84;5111593;28;20038;-75
2022/04/10 10:04:37;;;;;;;8.13;2.47;;;;;;;9.26;56.85;102123.81;5111896;28;20171;-75
2022/04/10 10:07:05;;;;;;;8.15;2.10;;;;;;;9.38;54.63;102133.38;5112268;28;20024;-74
2022/04/10 10:09:32;;;;;;;6.82;1.80;;;;;;;9.45;50.77;102127.34;5110943;28;20205;-74
2022/04/10 10:11:59;;;;;;;3.67;2.10;;;;;;;9.48;52.88;102111.72;5111568;28;20038;-74
2022/04/10 10:14:26;;;;;;;6.20;2.05;;;;;;;9.75;50.65;102113.47;5111859;28;20031;-74
2022/04/10 10:16:52;;;;;;;5.75;1.77;;;;;;;9.93;50.82;102120.41;5111095;28;20019;-75
2022/04/10 10:19:18;;;;;;;5.45;2.10;;;;;;;10.09;51.80;102106.50;5111786;28;20020;-74
2022/04/10 10:21:43;;;;;;;4.43;1.92;;;;;;;10.28;49.85;102117.81;5111567;28;20030;-74
2022/04/10 10:24:10;;;;;;;4.90;2.00;;;;;;;10.35;51.03;102110.84;5111205;28;20077;-74
2022/04/10 10:27:10;;;;;;;5.57;2.17;;;;;;;10.49;52.00;102108.19;5111799;28;20027;-75
2022/04/10 10:30:01;;;;;;;8.32;2.67;;;;;;;10.46;51.72;102108.19;5111987;28;20143;-75
2022/04/10 10:32:46;;;;;;;6.20;2.00;;;;;;;10.63;51.53;102102.94;5111739;28;20016;-75
2022/04/10 10:35:30;;;;;;;4.50;2.38;;;;;;;10.68;51.41;102101.19;5111750;28;20012;-75
2022/04/10 10:37:55;;;;;;;4.00;2.00;;;;;;;10.58;48.35;102104.69;5110720;28;20553;-75
2022/04/10 10:40:22;;;;;;;5.68;2.17;;;;;;;10.42;48.54;102098.66;5113152;28;20059;-75
2022/04/10 10:42:51;;;;;;;5.43;2.35;;;;;;;10.30;49.83;102102.19;5115379;28;20032;-75
2022/04/10 10:45:34;;;;;;;6.32;2.42;;;;;;;10.53;51.96;102102.13;5114443;27;20035;-74
2022/04/10 10:48:31;;;;;;;9.57;2.47;;;;;;;10.61;49.70;102100.34;5115497;28;20026;-75
2022/04/10 10:51:22;;;;;;;3.42;2.13;;;;;;;10.28;49.25;102106.50;5114411;28;20480;-75
2022/04/10 10:53:52;;;;;;;4.88;2.25;;;;;;;9.89;48.83;102099.59;5114887;28;20110;-75
2022/04/10 10:56:17;;;;;;;8.60;2.45;;;;;;;9.57;49.68;102103.91;5115403;28;20019;-75
2022/04/10 10:58:42;;;;;;;6.20;3.03;;;;;;;9.60;51.92;102109.13;5114380;28;20043;-74
2022/04/10 11:01:08;;;;;;;7.90;2.60;;;;;;;9.97;48.51;102098.72;5115402;28;20773;-75
2022/04/10 11:04:02;;;;;;;10.10;3.20;;;;;;;10.37;52.53;102103.88;5115086;28;20399;-75
2022/04/10 11:06:42;;;;;;;3.35;2.67;;;;;;;10.86;50.56;102098.50;5114462;28;20058;-75
2022/04/10 11:09:46;;;;;;;4.70;2.03;;;;;;;11.28;50.44;102104.38;5115435;28;20032;-75
2022/04/10 11:12:14;;;;;;;4.97;2.20;;;;;;;11.69;44.92;102100.59;5104563;28;20123;-75
2022/04/10 11:14:41;;;;;;;6.38;2.30;;;;;;;11.99;44.01;102093.38;5114715;28;20031;-75
2022/04/10 11:17:14;;;;;;;7.53;2.42;;;;;;;12.25;44.49;102091.38;5115143;28;20433;-75